Time;durP1;ratioP1;P1;durP2;ratioP2;P2;SDS_P1;SDS_P2;PMS_P1;PMS_P2;Temp;Humidity;BMP_temperature;BMP_pressure;BME280_temperature;BME280_humidity;BME280_pressure;Samples;Min_cycle;Max_cycle;Signal;HPM_P1;HPM_P2
2022/05/28 00:00:07;;;;;;;27.25;3.30;;;;;;;13.65;68.25;102173.88;4943513;29;20114;-79
2022/05/28 00:02:32;;;;;;;33.45;3.80;;;;;;;13.64;68.29;102154.09;4962310;29;20042;-84
2022/05/28 00:04:58;;;;;;;24.88;3.33;;;;;;;13.63;68.45;102165.94;4964009;29;20031;-80
2022/05/28 00:07:24;;;;;;;25.83;3.38;;;;;;;13.60;68.98;102163.56;4957902;29;20028;-80
2022/05/28 00:09:49;;;;;;;21.70;2.75;;;;;;;13.61;69.22;102154.41;4948027;29;20054;-82
2022/05/28 00:12:15;;;;;;;25.00;2.63;;;;;;;13.59;70.00;102154.63;4965303;29;20114;-81
2022/05/28 00:14:40;;;;;;;36.15;3.75;;;;;;;13.63;69.29;102152.41;4961850;29;20059;-81
2022/05/28 00:17:06;;;;;;;24.40;3.42;;;;;;;13.66;68.94;102146.63;4947240;29;20175;-83
2022/05/28 00:19:31;;;;;;;27.05;3.05;;;;;;;13.64;68.64;102154.09;4966918;29;20042;-81
2022/05/28 00:21:56;;;;;;;20.27;2.35;;;;;;;13.61;68.98;102151.72;4962325;29;20038;-80
2022/05/28 00:24:22;;;;;;;25.88;2.88;;;;;;;13.54;69.28;102148.03;4962591;29;20038;-80
2022/05/28 00:26:47;;;;;;;33.58;3.40;;;;;;;13.51;69.85;102145.66;4962379;29;20038;-80
2022/05/28 00:29:12;;;;;;;22.50;3.50;;;;;;;13.52;69.92;102150.88;4960193;29;20031;-82
2022/05/28 00:31:38;;;;;;;29.73;2.70;;;;;;;13.50;69.99;102133.13;4962365;29;20039;-85
2022/05/28 00:34:04;;;;;;;19.88;2.60;;;;;;;13.45;70.35;102146.31;4953740;29;20051;-82
2022/05/28 00:36:30;;;;;;;29.63;2.80;;;;;;;13.37;70.70;102147.16;4967219;29;20031;-80
2022/05/28 00:38:55;;;;;;;35.65;3.92;;;;;;;13.39;71.00;102151.38;4967762;29;20030;-81
2022/05/28 00:41:21;;;;;;;33.00;3.47;;;;;;;13.39;71.21;102145.13;4973644;29;20439;-82
2022/05/28 00:43:46;;;;;;;30.30;4.03;;;;;;;13.39;71.37;102145.97;4966328;29;20095;-84
2022/05/28 00:46:24;;;;;;;39.40;3.55;;;;;;;13.40;71.74;102144.13;4963970;29;20023;-83
2022/05/28 00:48:53;;;;;;;34.92;3.97;;;;;;;13.39;71.70;102151.38;4965028;29;20045;-83
2022/05/28 00:51:27;;;;;;;46.45;3.20;;;;;;;13.41;71.88;102150.38;4970134;29;20019;-84
2022/05/28 00:53:54;;;;;;;38.60;3.47;;;;;;;13.41;72.04;102150.38;4971921;28;20078;-82
2022/05/28 00:56:22;;;;;;;34.70;2.92;;;;;;;13.36;72.54;102151.72;4969568;29;20046;-81
2022/05/28 00:58:48;;;;;;;46.38;3.75;;;;;;;13.34;73.03;102147.50;4955660;29;20099;-82
2022/05/28 01:01:15;;;;;;;37.00;4.90;;;;;;;13.29;73.17;102145.28;4967268;29;20035;-89
2022/05/28 01:04:02;;;;;;;34.92;3.80;;;;;;;13.29;73.52;102150.69;4952085;29;20027;-82
2022/05/28 01:06:42;;;;;;;36.70;3.28;;;;;;;13.26;73.49;102144.75;4962003;29;20483;-83
2022/05/28 01:09:16;;;;;;;39.05;3.63;;;;;;;13.20;74.01;102146.28;4948913;29;20039;-85
2022/05/28 01:11:51;;;;;;;34.85;3.03;;;;;;;13.15;74.21;102145.94;4966676;29;20401;-85
2022/05/28 01:14:24;;;;;;;37.25;3.05;;;;;;;13.12;74.37;102148.97;4949348;29;20034;-85
2022/05/28 01:16:55;;;;;;;35.67;3.17;;;;;;;13.12;74.62;102146.28;4947747;29;20039;-84
2022/05/28 01:19:49;;;;;;;28.17;2.78;;;;;;;13.10;74.67;102156.41;4935499;29;20027;-83
2022/05/28 01:22:53;;;;;;;38.67;2.72;;;;;;;13.01;74.75;102141.19;4949386;29;20032;-82
2022/05/28 01:25:27;;;;;;;41.72;4.47;;;;;;;12.95;75.13;102151.66;4952131;29;20035;-82
2022/05/28 01:28:03;;;;;;;29.52;2.88;;;;;;;12.92;75.33;102143.84;4948574;28;20050;-82
2022/05/28 01:30:29;;;;;;;33.53;3.55;;;;;;;12.88;75.44;102147.91;4938019;29;20023;-84
2022/05/28 01:32:55;;;;;;;38.42;4.30;;;;;;;12.85;75.68;102142.84;4951922;29;20131;-82
2022/05/28 01:35:22;;;;;;;39.90;3.70;;;;;;;12.82;75.95;102147.72;4935050;29;20051;-83
2022/05/28 01:37:48;;;;;;;34.78;3.13;;;;;;;12.79;76.13;102148.88;4967761;29;20047;-85
2022/05/28 01:40:14;;;;;;;40.22;3.28;;;;;;;12.80;76.02;102150.59;4963469;29;20054;-81
2022/05/28 01:42:44;;;;;;;40.60;2.80;;;;;;;12.75;76.27;102136.75;4949133;29;20093;-83
2022/05/28 01:45:12;;;;;;;35.42;3.38;;;;;;;12.72;76.37;102139.78;4963108;29;20107;-84
2022/05/28 01:47:38;;;;;;;;;;;;;;;12.71;76.06;102133.50;4967691;29;20023;-82
2022/05/28 01:50:06;;;;;;;29.25;3.47;;;;;;;12.71;76.15;102141.59;4939601;29;19938;-83
2022/05/28 01:52:32;;;;;;;33.60;2.65;;;;;;;12.73;75.94;102136.06;4947830;29;20039;-81
2022/05/28 01:54:59;;;;;;;33.10;3.00;;;;;;;12.72;76.09;102139.78;4962243;29;20450;-81
2022/05/28 01:57:24;;;;;;;37.47;3.15;;;;;;;12.72;76.24;102132.50;4958307;29;20103;-80
2022/05/28 01:59:49;;;;;;;33.63;3.78;;;;;;;12.73;76.18;102138.75;4942291;29;20043;-82
2022/05/28 02:02:15;;;;;;;29.67;2.45;;;;;;;12.72;76.17;102137.06;4944033;29;20027;-82
2022/05/28 02:04:44;;;;;;;35.70;3.42;;;;;;;12.68;76.37;102141.94;4945529;29;20046;-83
2022/05/28 02:07:10;;;;;;;51.45;4.63;;;;;;;12.64;76.41;102139.75;4961223;29;20170;-81
2022/05/28 02:09:45;;;;;;;33.42;3.38;;;;;;;12.63;76.18;102144.28;4964307;29;20479;-81
2022/05/28 02:12:13;;;;;;;30.50;2.40;;;;;;;12.59;76.25;102142.94;4943127;29;20043;-84
2022/05/28 02:14:43;;;;;;;34.58;3.60;;;;;;;12.65;75.83;102138.72;4938800;29;20053;-82
2022/05/28 02:17:25;;;;;;;26.23;2.67;;;;;;;12.60;75.52;102146.47;4941376;29;20612;-84
2022/05/28 02:19:58;;;;;;;35.17;3.38;;;;;;;12.61;75.38;102140.94;4924874;29;20031;-82
2022/05/28 02:22:35;;;;;;;25.98;2.88;;;;;;;12.56;75.47;102140.56;4939768;28;20060;-82
2022/05/28 02:25:06;;;;;;;25.55;2.88;;;;;;;12.55;75.32;102138.03;4940857;29;20038;-81
2022/05/28 02:27:32;;;;;;;23.75;2.53;;;;;;;12.49;74.80;102134.97;4945815;29;20095;-82
2022/05/28 02:30:02;;;;;;;30.00;2.88;;;;;;;12.50;74.50;102133.94;4960703;29;20031;-82
2022/05/28 02:32:28;;;;;;;32.13;3.10;;;;;;;12.51;73.59;102130.25;4931414;29;20038;-82
2022/05/28 02:34:53;;;;;;;35.33;2.75;;;;;;;12.51;73.33;102127.56;5053850;22;20058;-80
2022/05/28 02:37:21;;;;;;;26.40;2.17;;;;;;;12.49;73.08;102129.56;5021808;28;20022;-82
2022/05/28 02:39:47;;;;;;;24.42;2.15;;;;;;;12.48;73.32;102135.97;5004781;28;20046;-80
2022/05/28 02:42:13;;;;;;;32.70;3.00;;;;;;;12.47;73.17;102134.28;5007401;28;20164;-80
2022/05/28 02:44:38;;;;;;;23.55;2.08;;;;;;;12.44;73.50;102134.59;4998072;28;20034;-80
2022/05/28 02:47:04;;;;;;;20.08;2.00;;;;;;;12.45;73.60;102133.63;4996594;28;20033;-80
2022/05/28 02:49:30;;;;;;;25.73;2.50;;;;;;;12.44;73.46;102129.19;4995729;28;20045;-81
2022/05/28 02:51:56;;;;;;;19.40;1.95;;;;;;;12.45;73.25;102139.00;4996084;28;20454;-80
2022/05/28 02:54:22;;;;;;;20.15;2.92;;;;;;;12.42;73.30;102131.22;4977720;28;20034;-80
2022/05/28 02:56:48;;;;;;;20.88;1.92;;;;;;;12.36;72.23;102121.06;4995862;28;20057;-81
2022/05/28 02:59:13;;;;;;;21.05;1.95;;;;;;;12.34;71.48;102123.06;4997736;28;20034;-79
2022/05/28 03:01:39;;;;;;;16.52;2.05;;;;;;;12.31;71.19;102123.41;4996371;28;20394;-80
2022/05/28 03:04:06;;;;;;;18.83;1.52;;;;;;;12.34;69.51;102133.03;4997379;28;20026;-79
2022/05/28 03:06:32;;;;;;;19.17;1.60;;;;;;;12.34;68.60;102124.94;4996888;28;20030;-80
2022/05/28 03:08:57;;;;;;;10.55;1.33;;;;;;;12.26;69.11;102128.44;4969538;28;20379;-81
2022/05/28 03:11:22;;;;;;;9.82;1.17;;;;;;;12.28;69.26;102126.44;4977736;28;20057;-81
2022/05/28 03:13:48;;;;;;;18.17;1.58;;;;;;;12.28;69.93;102131.84;4999570;28;20041;-81
2022/05/28 03:16:14;;;;;;;20.05;2.90;;;;;;;12.26;69.87;102131.97;4999302;28;20054;-79
2022/05/28 03:18:39;;;;;;;13.60;1.80;;;;;;;12.23;70.06;102132.31;4997748;28;20517;-78
2022/05/28 03:21:07;;;;;;;10.77;1.50;;;;;;;12.26;70.42;102131.97;5000069;28;20025;-81
2022/05/28 03:23:32;;;;;;;18.05;2.08;;;;;;;12.29;70.56;102138.91;4992437;28;20034;-80
2022/05/28 03:25:58;;;;;;;14.05;1.60;;;;;;;12.22;70.67;102141.44;5007848;28;20153;-80
2022/05/28 03:28:23;;;;;;;16.42;2.30;;;;;;;12.20;70.71;102137.19;5005615;28;20081;-79
2022/05/28 03:30:48;;;;;;;10.43;1.48;;;;;;;12.22;70.34;102140.59;5000170;28;20031;-80
2022/05/28 03:33:14;;;;;;;13.25;1.73;;;;;;;12.18;70.33;102144.59;4965748;28;20039;-80
2022/05/28 03:35:40;;;;;;;20.25;1.40;;;;;;;12.15;69.87;102147.63;4977925;28;20133;-80
2022/05/28 03:38:06;;;;;;;15.48;1.50;;;;;;;12.14;69.26;102145.91;4979106;28;20027;-79
2022/05/28 03:40:32;;;;;;;20.50;1.73;;;;;;;12.09;69.10;102151.81;4977104;28;20406;-79
2022/05/28 03:42:57;;;;;;;14.30;1.85;;;;;;;12.05;69.04;102148.56;4978689;28;20019;-79
2022/05/28 03:45:25;;;;;;;20.30;2.10;;;;;;;12.07;68.46;102146.56;4974543;28;20030;-80
2022/05/28 03:47:50;;;;;;;13.05;1.52;;;;;;;12.14;67.31;102137.81;4960889;28;20117;-80
2022/05/28 03:50:15;;;;;;;13.38;1.33;;;;;;;12.10;67.36;102145.41;4975892;28;20089;-81
2022/05/28 03:52:41;;;;;;;14.40;1.75;;;;;;;12.05;67.62;102151.28;4958319;28;20031;-81
2022/05/28 03:55:06;;;;;;;14.82;1.27;;;;;;;12.03;67.79;102139.81;4976709;28;20125;-81
2022/05/28 03:57:33;;;;;;;9.18;1.38;;;;;;;12.04;67.49;102148.75;4975946;28;20098;-79
2022/05/28 03:59:59;;;;;;;12.70;1.75;;;;;;;11.98;68.29;102147.53;4975551;28;20062;-80
2022/05/28 04:02:25;;;;;;;16.15;2.13;;;;;;;12.02;67.99;102143.50;4974379;28;20027;-78
2022/05/28 04:04:50;;;;;;;7.47;1.52;;;;;;;12.02;68.24;102157.00;4977522;28;20379;-80
2022/05/28 04:07:16;;;;;;;11.70;1.40;;;;;;;12.08;68.30;102144.72;4975450;28;20383;-81
2022/05/28 04:09:43;;;;;;;22.48;1.70;;;;;;;12.08;68.66;102152.81;4973352;28;20042;-80
2022/05/28 04:12:08;;;;;;;18.35;1.70;;;;;;;12.07;68.82;102149.25;4955056;28;20026;-82
2022/05/28 04:14:34;;;;;;;23.98;2.63;;;;;;;12.10;68.95;102152.66;4972645;28;20038;-82
2022/05/28 04:16:59;;;;;;;14.68;1.80;;;;;;;12.15;68.65;102150.31;4972386;28;20042;-81
2022/05/28 04:19:25;;;;;;;15.57;1.42;;;;;;;12.25;67.60;102162.69;4972604;28;20048;-81
2022/05/28 04:21:51;;;;;;;12.52;1.50;;;;;;;12.28;67.38;102159.66;4971768;28;20073;-82
2022/05/28 04:24:16;;;;;;;11.48;1.33;;;;;;;12.39;67.53;102163.09;4972493;28;20058;-82
2022/05/28 04:26:42;;;;;;;25.55;2.08;;;;;;;12.47;67.58;102160.44;4955207;28;20109;-80
2022/05/28 04:29:08;;;;;;;10.23;1.35;;;;;;;12.59;67.32;102172.66;4955617;28;20022;-82
2022/05/28 04:31:33;;;;;;;14.43;1.80;;;;;;;12.60;67.00;102171.63;4973707;28;20039;-80
2022/05/28 04:33:59;;;;;;;17.40;1.70;;;;;;;12.62;66.91;102180.41;4972355;28;20467;-81
2022/05/28 04:36:24;;;;;;;13.43;1.20;;;;;;;12.62;66.43;102175.00;4972188;28;20022;-81
2022/05/28 04:38:50;;;;;;;15.48;1.40;;;;;;;12.70;65.68;102176.91;4960599;28;20099;-80
2022/05/28 04:41:16;;;;;;;9.60;1.25;;;;;;;12.76;65.18;102180.81;4976531;28;20030;-81
2022/05/28 04:43:42;;;;;;;13.60;1.80;;;;;;;12.79;65.31;102175.91;4974488;28;20129;-79
2022/05/28 04:46:07;;;;;;;13.32;1.95;;;;;;;12.84;65.36;102170.84;4976132;28;20050;-80
2022/05/28 04:48:33;;;;;;;15.38;1.70;;;;;;;12.89;65.50;102173.91;4974201;28;20026;-80
2022/05/28 04:50:59;;;;;;;15.27;1.40;;;;;;;12.84;65.47;102170.03;4954520;28;20483;-79
2022/05/28 04:53:24;;;;;;;10.57;1.30;;;;;;;12.85;64.60;102180.69;4972476;28;20047;-81
2022/05/28 04:55:49;;;;;;;19.35;2.03;;;;;;;12.87;64.47;102175.09;4971652;28;20030;-80
2022/05/28 04:58:15;;;;;;;9.57;1.65;;;;;;;12.92;64.53;102179.00;4971430;28;20031;-81
2022/05/28 05:00:41;;;;;;;18.98;1.95;;;;;;;12.88;63.89;102174.94;4971808;28;20018;-81
2022/05/28 05:03:06;;;;;;;17.63;2.05;;;;;;;12.83;63.73;102180.00;4971338;28;20045;-82
2022/05/28 05:05:33;;;;;;;9.55;1.38;;;;;;;12.85;64.50;102175.28;4970955;28;20037;-80
2022/05/28 05:07:58;;;;;;;15.63;2.00;;;;;;;12.90;64.40;102194.53;4971426;28;20376;-81
2022/05/28 05:10:24;;;;;;;19.02;1.65;;;;;;;12.98;63.55;102185.63;4971585;28;20065;-81
2022/05/28 05:12:49;;;;;;;12.07;1.60;;;;;;;13.07;63.33;102197.28;4971676;28;20386;-81
2022/05/28 05:15:14;;;;;;;13.55;1.25;;;;;;;13.21;62.59;102185.81;4972847;28;20502;-82
2022/05/28 05:17:40;;;;;;;20.20;2.05;;;;;;;13.37;62.38;102195.84;4971769;28;20037;-81
2022/05/28 05:20:07;;;;;;;16.92;1.92;;;;;;;13.41;62.43;102196.38;4971443;28;20042;-82
2022/05/28 05:22:32;;;;;;;14.68;1.85;;;;;;;13.44;62.33;102190.63;4976349;28;20074;-81
2022/05/28 05:24:58;;;;;;;21.77;1.90;;;;;;;13.47;62.65;102190.28;4969069;28;20061;-79
2022/05/28 05:27:23;;;;;;;20.08;1.70;;;;;;;13.50;63.14;102189.94;4964625;28;20066;-79
2022/05/28 05:29:48;;;;;;;14.93;1.55;;;;;;;13.64;61.62;102197.41;4971566;28;20475;-82
2022/05/28 05:32:14;;;;;;;17.20;2.35;;;;;;;13.70;60.98;102207.53;4971868;28;20026;-81
2022/05/28 05:34:39;;;;;;;17.52;1.35;;;;;;;13.74;59.93;102199.91;4971791;28;20054;-81
2022/05/28 05:37:05;;;;;;;18.35;1.58;;;;;;;13.71;59.50;102192.97;4971103;28;20151;-80
2022/05/28 05:39:31;;;;;;;18.63;2.20;;;;;;;13.70;59.70;102203.97;4954021;28;20034;-80
2022/05/28 05:41:56;;;;;;;17.25;2.65;;;;;;;13.69;59.55;102203.16;4929567;28;20049;-80
2022/05/28 05:44:22;;;;;;;13.48;1.67;;;;;;;13.64;59.30;102210.06;4968852;28;20027;-82
2022/05/28 05:46:48;;;;;;;21.40;2.00;;;;;;;13.55;58.81;102211.91;4970444;28;20142;-81
2022/05/28 05:49:13;;;;;;;11.77;2.08;;;;;;;13.53;59.61;102216.63;4970794;28;20107;-82
2022/05/28 05:51:42;;;;;;;22.55;2.58;;;;;;;13.66;59.64;102211.56;4952294;28;20041;-81
2022/05/28 05:54:07;;;;;;;17.20;2.10;;;;;;;13.80;58.84;102212.78;4969962;28;20031;-81
2022/05/28 05:56:32;;;;;;;11.30;1.42;;;;;;;13.86;59.40;102211.25;4971821;28;20022;-82
2022/05/28 05:58:58;;;;;;;18.88;1.95;;;;;;;13.95;59.67;102212.91;4970707;28;20105;-82
2022/05/28 06:01:24;;;;;;;16.95;1.25;;;;;;;14.14;58.66;102220.69;4953826;28;20093;-82
2022/05/28 06:03:50;;;;;;;11.60;1.58;;;;;;;14.32;58.19;102217.75;4972153;28;20035;-80
2022/05/28 06:06:16;;;;;;;25.05;2.00;;;;;;;14.38;56.48;102221.66;4975298;28;20377;-79
2022/05/28 06:08:42;;;;;;;14.48;1.70;;;;;;;14.43;57.81;102225.53;4955950;28;20037;-81
2022/05/28 06:11:07;;;;;;;22.10;2.00;;;;;;;14.47;57.82;102226.84;4975733;28;20019;-80
2022/05/28 06:13:32;;;;;;;24.33;2.47;;;;;;;14.42;58.52;102229.25;4973156;28;20030;-82
2022/05/28 06:15:58;;;;;;;9.52;1.58;;;;;;;14.51;58.22;102230.09;4971749;28;20463;-79
2022/05/28 06:18:23;;;;;;;16.42;1.80;;;;;;;14.87;58.27;102238.59;4973330;28;20027;-80
2022/05/28 06:20:49;;;;;;;17.02;1.92;;;;;;;15.31;56.18;102227.19;4972062;28;20023;-79
2022/05/28 06:23:16;;;;;;;18.38;1.92;;;;;;;15.87;54.78;102224.25;4994370;28;20019;-79
2022/05/28 06:25:41;;;;;;;14.98;2.03;;;;;;;16.57;52.44;102230.34;4990177;28;20097;-79
2022/05/28 06:28:06;;;;;;;15.07;2.00;;;;;;;17.30;50.54;102236.72;4992003;28;20046;-81
2022/05/28 06:30:32;;;;;;;16.65;2.10;;;;;;;17.97;49.55;102235.50;4956233;28;20035;-80
2022/05/28 06:32:57;;;;;;;11.32;1.77;;;;;;;18.14;47.99;102231.44;4951308;29;20027;-81
2022/05/28 06:35:22;;;;;;;16.83;1.95;;;;;;;18.02;46.97;102234.91;4980879;28;20097;-82
2022/05/28 06:37:49;;;;;;;14.30;1.65;;;;;;;17.62;46.76;102243.53;4992366;28;20126;-80
2022/05/28 06:40:15;;;;;;;17.40;2.20;;;;;;;17.20;49.03;102242.47;4973561;28;20406;-80
2022/05/28 06:42:40;;;;;;;15.98;2.17;;;;;;;16.48;49.73;102236.88;4973697;28;20121;-80
2022/05/28 06:45:06;;;;;;;9.30;1.35;;;;;;;16.56;50.79;102239.50;4991162;28;20026;-83
2022/05/28 06:47:31;;;;;;;20.17;2.00;;;;;;;16.68;50.18;102238.84;4974158;28;20557;-81
2022/05/28 06:52:40;;;;;;;19.77;2.72;;;;;;;17.28;49.79;102245.06;4983414;28;20046;-83
2022/05/28 06:55:06;;;;;;;18.10;2.00;;;;;;;17.48;49.25;102247.16;4973148;28;20035;-84
2022/05/28 06:57:32;;;;;;;23.35;2.03;;;;;;;17.39;49.00;102253.75;4971699;28;20027;-82
2022/05/28 06:59:58;;;;;;;17.80;2.08;;;;;;;17.93;47.79;102243.22;4972785;28;20045;-83
2022/05/28 07:02:23;;;;;;;25.38;2.22;;;;;;;18.53;46.03;102240.06;4973383;28;20142;-80
2022/05/28 07:04:49;;;;;;;25.20;2.58;;;;;;;19.08;45.69;102260.94;4971290;28;20079;-80
2022/05/28 07:07:14;;;;;;;17.95;2.55;;;;;;;20.15;42.23;102252.97;4955805;28;20081;-81
2022/05/28 07:09:40;;;;;;;24.27;3.20;;;;;;;20.74;39.78;102252.00;4968390;28;20023;-81
2022/05/28 07:12:06;;;;;;;15.90;2.30;;;;;;;21.12;39.33;102254.00;4965130;28;20023;-82
2022/05/28 07:14:31;;;;;;;22.90;2.58;;;;;;;20.36;40.07;102257.34;4972523;28;20062;-82
2022/05/28 07:16:56;;;;;;;20.00;2.83;;;;;;;19.19;42.78;102255.94;4971564;28;20055;-82
2022/05/28 07:19:22;;;;;;;28.33;2.30;;;;;;;18.16;45.28;102263.94;4972487;28;20045;-81
2022/05/28 07:21:47;;;;;;;21.73;2.60;;;;;;;17.40;47.15;102264.44;4976665;28;20526;-83
2022/05/28 07:24:12;;;;;;;13.13;1.65;;;;;;;17.49;47.53;102263.28;4960066;28;20047;-83
2022/05/28 07:26:40;;;;;;;23.25;2.78;;;;;;;17.72;46.67;102263.13;4979571;28;20034;-83
2022/05/28 07:29:05;;;;;;;25.83;2.63;;;;;;;17.93;46.56;102269.59;4982753;28;20023;-81
2022/05/28 07:31:30;;;;;;;23.42;2.03;;;;;;;18.06;45.04;102277.03;4987701;28;20070;-81
2022/05/28 07:33:56;;;;;;;27.65;2.63;;;;;;;18.42;44.32;102266.84;4992250;28;20075;-79
2022/05/28 07:36:23;;;;;;;20.48;2.35;;;;;;;19.12;43.71;102274.19;4981777;28;20039;-80
2022/05/28 07:38:49;;;;;;;22.48;3.05;;;;;;;20.02;41.40;102266.63;4998948;28;20034;-82
2022/05/28 07:41:20;;;;;;;23.80;2.70;;;;;;;20.66;39.20;102270.56;4999482;28;20038;-80
2022/05/28 07:43:45;;;;;;;23.75;2.42;;;;;;;20.63;40.65;102280.03;4993137;28;20130;-82
2022/05/28 07:46:12;;;;;;;24.90;3.10;;;;;;;20.50;39.60;102274.56;4979089;28;20102;-81
2022/05/28 07:48:37;;;;;;;19.83;2.22;;;;;;;19.45;42.11;102275.13;4982001;28;20150;-83
2022/05/28 07:51:02;;;;;;;19.92;2.60;;;;;;;18.61;43.50;102276.19;4989453;28;20034;-83
2022/05/28 07:53:28;;;;;;;20.70;2.53;;;;;;;19.35;42.43;102269.22;4969045;28;20054;-81
2022/05/28 07:55:53;;;;;;;21.98;3.05;;;;;;;19.18;42.52;102273.38;4976405;28;20034;-82
2022/05/28 07:58:20;;;;;;;30.00;3.08;;;;;;;18.94;43.36;102275.56;4975890;28;20037;-85
2022/05/28 08:00:48;;;;;;;25.05;3.63;;;;;;;18.94;44.06;102272.84;4976282;28;20114;-84
2022/05/28 08:03:14;;;;;;;32.28;2.50;;;;;;;20.26;41.97;102265.16;4978252;28;20030;-83
2022/05/28 08:05:42;;;;;;;17.73;2.50;;;;;;;21.30;39.61;102266.97;4961181;28;20027;-83
2022/05/28 08:08:07;;;;;;;;;;;;;;;21.68;37.60;102272.44;4981031;28;20026;-80
2022/05/28 08:10:33;;;;;;;21.67;2.38;;;;;;;22.14;37.37;102268.50;4985097;28;19913;-81
2022/05/28 08:13:03;;;;;;;18.25;2.53;;;;;;;21.65;37.71;102270.13;4988730;28;20034;-81
2022/05/28 08:15:28;;;;;;;19.02;2.40;;;;;;;20.39;39.53;102270.59;4967126;28;20037;-83
2022/05/28 08:17:53;;;;;;;22.30;3.15;;;;;;;18.93;42.45;102268.44;4979499;28;20031;-82
2022/05/28 08:20:19;;;;;;;27.63;2.75;;;;;;;17.98;44.55;102275.31;4985522;28;20087;-83
2022/05/28 08:25:28;;;;;;;19.77;2.08;;;;;;;19.55;42.18;102269.28;4991031;28;20386;-82
2022/05/28 08:27:53;;;;;;;25.52;2.97;;;;;;;19.99;41.69;102270.63;4983472;28;20039;-83
2022/05/28 08:30:18;;;;;;;22.48;2.65;;;;;;;20.29;40.24;102270.19;4999926;28;20030;-80
2022/05/28 08:32:44;;;;;;;17.00;2.50;;;;;;;20.43;39.89;102268.25;4992285;28;20034;-81
2022/05/28 08:35:09;;;;;;;17.92;2.35;;;;;;;20.74;40.00;102268.44;4980365;28;20059;-83
2022/05/28 08:37:35;;;;;;;33.58;3.20;;;;;;;20.70;40.10;102271.84;4983014;28;20081;-84
2022/05/28 08:40:00;;;;;;;24.38;2.92;;;;;;;20.59;40.74;102271.44;4981150;28;20030;-84
2022/05/28 08:42:26;;;;;;;25.42;2.80;;;;;;;21.11;40.50;102274.19;4978140;28;20376;-82
2022/05/28 08:44:52;;;;;;;25.67;2.42;;;;;;;22.48;36.86;102279.16;4963401;28;20027;-83
2022/05/28 08:47:19;;;;;;;21.35;2.45;;;;;;;22.87;36.82;102282.56;4982818;28;20030;-84
2022/05/28 08:49:45;;;;;;;20.33;3.27;;;;;;;22.17;37.18;102282.81;4980190;28;20038;-82
2022/05/28 08:52:28;;;;;;;44.65;3.95;;;;;;;20.56;39.91;102279.22;4963708;28;20118;-83
2022/05/28 08:54:59;;;;;;;27.42;3.67;;;;;;;19.68;42.26;102287.59;4961310;28;20034;-82
2022/05/28 08:57:41;;;;;;;25.80;2.85;;;;;;;19.24;43.80;102291.66;4960509;28;20087;-80
2022/05/28 09:00:34;;;;;;;26.55;2.95;;;;;;;20.00;42.08;102282.38;4960030;28;20446;-84
2022/05/28 09:03:12;;;;;;;27.02;2.70;;;;;;;20.84;39.54;102287.16;4965628;28;20035;-82
2022/05/28 09:05:40;;;;;;;;;;;;;;;20.94;40.52;102283.97;4990140;28;20038;-83
2022/05/28 09:08:05;;;;;;;20.55;3.20;;;;;;;21.98;37.64;102288.22;4986877;28;19933;-84
2022/05/28 09:10:45;;;;;;;26.30;2.85;;;;;;;22.01;36.59;102289.69;4932785;28;20399;-78
2022/05/28 09:13:32;;;;;;;20.40;2.97;;;;;;;21.61;36.50;102288.06;4943521;29;20497;-82
2022/05/28 09:15:59;;;;;;;21.55;2.72;;;;;;;20.82;38.42;102286.50;4947019;28;20502;-82
2022/05/28 09:18:30;;;;;;;29.63;2.88;;;;;;;21.41;38.39;102284.63;4975681;28;20023;-81
2022/05/28 09:20:55;;;;;;;34.90;3.35;;;;;;;21.85;37.09;102293.81;4957810;28;20047;-81
2022/05/28 09:23:20;;;;;;;24.85;3.10;;;;;;;22.35;37.06;102286.47;4957492;28;20096;-82
2022/05/28 09:25:48;;;;;;;16.55;2.53;;;;;;;22.11;35.68;102285.38;4975750;28;20111;-83
2022/05/28 09:28:27;;;;;;;30.80;3.00;;;;;;;21.79;36.29;102284.56;4959367;28;20027;-80
2022/05/28 09:31:07;;;;;;;30.70;3.20;;;;;;;20.93;37.51;102293.22;4963611;28;20027;-82
2022/05/28 09:33:43;;;;;;;22.42;3.65;;;;;;;20.16;40.21;102287.44;4975099;28;20034;-81
2022/05/28 09:36:08;;;;;;;30.52;3.95;;;;;;;19.60;40.57;102285.03;4975154;28;20049;-81
2022/05/28 09:38:39;;;;;;;16.63;2.63;;;;;;;19.70;40.06;102285.53;4979181;28;20023;-82
2022/05/28 09:41:27;;;;;;;33.45;3.45;;;;;;;19.93;39.19;102285.09;4978641;28;20675;-81
2022/05/28 09:44:08;;;;;;;18.30;2.90;;;;;;;20.07;39.74;102281.34;4962752;28;20479;-79
2022/05/28 09:46:36;;;;;;;22.33;2.75;;;;;;;20.65;38.37;102294.34;4955484;28;20035;-78
2022/05/28 09:49:15;;;;;;;24.55;2.67;;;;;;;21.04;37.37;102273.41;4956803;28;20553;-81
2022/05/28 09:52:05;;;;;;;21.90;3.13;;;;;;;21.33;36.60;102284.81;4975371;28;20050;-78
2022/05/28 09:54:33;;;;;;;31.27;3.38;;;;;;;22.20;35.39;102287.91;4960293;28;20031;-79
2022/05/28 09:57:09;;;;;;;20.98;2.22;;;;;;;22.54;33.88;102290.09;4957127;28;20053;-82
2022/05/28 09:59:44;;;;;;;23.17;2.53;;;;;;;21.93;35.20;102288.06;4968809;28;20084;-76
2022/05/28 10:02:16;;;;;;;30.63;2.92;;;;;;;21.31;35.88;102289.69;4981531;28;20026;-78
2022/05/28 10:04:49;;;;;;;24.33;3.65;;;;;;;21.47;35.55;102273.63;4976122;28;20045;-76
2022/05/28 10:07:14;;;;;;;18.08;2.53;;;;;;;21.91;34.90;102274.59;4988268;28;20114;-76
2022/05/28 10:09:50;;;;;;;30.52;2.67;;;;;;;21.16;36.50;102277.13;4978043;28;20119;-76
2022/05/28 10:12:22;;;;;;;16.80;2.30;;;;;;;20.65;36.97;102283.41;4979449;28;20034;-76
2022/05/28 10:14:59;;;;;;;16.08;2.25;;;;;;;21.04;36.53;102274.25;4973482;28;20050;-75
2022/05/28 10:17:25;;;;;;;17.42;2.60;;;;;;;21.89;34.99;102275.88;4973242;28;20455;-78
2022/05/28 10:19:54;;;;;;;20.08;3.00;;;;;;;21.74;34.06;102281.66;4973898;28;20050;-76
2022/05/28 10:22:20;;;;;;;13.18;2.28;;;;;;;21.55;34.51;102286.22;4972613;28;20478;-75
2022/05/28 10:24:52;;;;;;;13.03;2.13;;;;;;;21.90;35.37;102272.06;4955858;28;20042;-74
2022/05/28 10:27:22;;;;;;;26.38;3.63;;;;;;;22.34;33.35;102278.47;4955827;28;20812;-76
2022/05/28 10:29:49;;;;;;;23.52;2.78;;;;;;;22.69;32.22;102286.13;4974560;28;20030;-76
2022/05/28 10:32:36;;;;;;;25.17;3.33;;;;;;;23.25;30.31;102282.31;4983480;28;20027;-78
2022/05/28 10:35:16;;;;;;;15.07;2.28;;;;;;;23.68;30.83;102278.53;4989739;28;20467;-77
2022/05/28 10:37:42;;;;;;;16.52;2.30;;;;;;;23.81;31.27;102272.84;4956135;28;20034;-77
2022/05/28 10:40:21;;;;;;;23.40;2.38;;;;;;;23.39;31.16;102281.06;4979569;28;20088;-76
2022/05/28 10:42:47;;;;;;;22.95;2.25;;;;;;;23.35;31.52;102279.00;4972549;28;20367;-78
2022/05/28 10:45:16;;;;;;;24.15;2.25;;;;;;;23.87;30.78;102282.91;4938275;28;20135;-77
2022/05/28 10:48:01;;;;;;;18.00;2.75;;;;;;;24.45;29.98;102277.72;4945543;28;20434;-78
2022/05/28 10:50:40;;;;;;;35.42;3.03;;;;;;;24.28;30.32;102272.91;4956076;28;20045;-78
2022/05/28 10:53:17;;;;;;;28.58;3.65;;;;;;;23.73;30.10;102275.94;4946839;28;20031;-76
2022/05/28 10:56:04;;;;;;;18.40;2.42;;;;;;;23.80;29.83;102282.19;4981748;28;20398;-76
2022/05/28 10:58:45;;;;;;;26.83;3.40;;;;;;;23.42;31.52;102277.00;4960059;28;20037;-79
2022/05/28 11:01:29;;;;;;;18.42;2.85;;;;;;;23.38;31.14;102281.28;4960256;28;20023;-78
2022/05/28 11:04:22;;;;;;;19.67;2.70;;;;;;;23.02;31.74;102290.44;4976630;28;20468;-77
2022/05/28 11:07:01;;;;;;;27.70;3.15;;;;;;;22.46;31.82;102279.41;4976884;28;20015;-77
2022/05/28 11:09:45;;;;;;;22.40;2.45;;;;;;;21.45;33.88;102280.38;4976667;28;20562;-78
2022/05/28 11:12:42;;;;;;;19.52;2.60;;;;;;;20.96;35.70;102274.47;4976677;28;20360;-77
2022/05/28 11:15:24;;;;;;;28.92;3.05;;;;;;;20.69;36.46;102276.44;4976357;28;20035;-76
2022/05/28 11:18:04;;;;;;;19.70;2.88;;;;;;;20.74;37.17;102284.84;4959315;28;20058;-76
2022/05/28 11:20:43;;;;;;;47.58;3.70;;;;;;;20.29;37.24;102271.00;4976558;28;20023;-77
2022/05/28 11:23:38;;;;;;;17.58;2.60;;;;;;;19.73;38.75;102268.72;4976332;28;20055;-77
2022/05/28 11:26:44;;;;;;;22.40;2.85;;;;;;;20.15;38.53;102269.34;4958480;28;20035;-77
2022/05/28 11:29:23;;;;;;;25.75;2.95;;;;;;;19.49;39.33;102270.94;4929810;28;20066;-78
2022/05/28 11:31:53;;;;;;;22.20;2.72;;;;;;;19.86;39.23;102256.97;4958853;28;20042;-76